Time;durP1;ratioP1;P1;durP2;ratioP2;P2;SDS_P1;SDS_P2;PMS_P1;PMS_P2;Temp;Humidity;BMP_temperature;BMP_pressure;BME280_temperature;BME280_humidity;BME280_pressure;Samples;Min_cycle;Max_cycle;Signal;HPM_P1;HPM_P2
2023/09/11 00:01:36;;;;;;;18.25;8.05;;;;;;;;;;5020534;28;20050;-63
2023/09/11 00:04:03;;;;;;;19.35;7.68;;;;;;;;;;5004567;28;20061;-62
2023/09/11 00:06:30;;;;;;;19.35;8.00;;;;;;;;;;5007123;28;20137;-64
2023/09/11 00:09:00;;;;;;;12.95;7.55;;;;;;;;;;4997876;28;20154;-62
2023/09/11 00:11:27;;;;;;;15.40;7.85;;;;;;;;;;4986737;28;20153;-63
2023/09/11 00:13:53;;;;;;;22.13;8.88;;;;;;;;;;4984604;28;20086;-62
2023/09/11 00:16:20;;;;;;;21.48;8.25;;;;;;;;;;4975094;28;20061;-64
2023/09/11 00:18:46;;;;;;;16.00;7.60;;;;;;;;;;4983835;28;20058;-63
2023/09/11 00:21:13;;;;;;;13.00;7.53;;;;;;;;;;4985486;28;20062;-63
2023/09/11 00:23:40;;;;;;;16.25;8.60;;;;;;;;;;5001730;28;20122;-62
2023/09/11 00:26:08;;;;;;;19.90;8.40;;;;;;;;;;4982602;28;20286;-63
2023/09/11 00:28:35;;;;;;;21.83;8.55;;;;;;;;;;4979291;28;20058;-64
2023/09/11 00:31:02;;;;;;;20.52;7.80;;;;;;;;;;4986050;28;20058;-64
2023/09/11 00:33:28;;;;;;;20.48;8.82;;;;;;;;;;4986295;28;20058;-61
2023/09/11 00:35:55;;;;;;;19.92;8.95;;;;;;;;;;4970736;28;20152;-65
2023/09/11 00:38:22;;;;;;;16.70;8.45;;;;;;;;;;4978629;28;20078;-60
2023/09/11 00:40:48;;;;;;;15.98;8.20;;;;;;;;;;4986079;28;20153;-62
2023/09/11 00:43:18;;;;;;;24.48;8.82;;;;;;;;;;5001119;28;20094;-61
2023/09/11 00:45:44;;;;;;;13.82;7.55;;;;;;;;;;4970498;28;20050;-62
2023/09/11 00:48:14;;;;;;;21.75;8.60;;;;;;;;;;4983750;28;20073;-67
2023/09/11 00:50:44;;;;;;;21.42;8.70;;;;;;;;;;4978845;28;20058;-64
2023/09/11 00:53:11;;;;;;;20.13;8.30;;;;;;;;;;4987756;28;20065;-65
2023/09/11 00:55:39;;;;;;;19.85;8.43;;;;;;;;;;4956805;28;20060;-63
2023/09/11 00:58:06;;;;;;;28.67;13.35;;;;;;;;;;4973438;28;20084;-62
2023/09/11 01:00:34;;;;;;;41.13;18.00;;;;;;;;;;4958442;28;20050;-61
2023/09/11 01:03:01;;;;;;;33.80;16.33;;;;;;;;;;4984038;28;20113;-62
2023/09/11 01:05:30;;;;;;;21.40;10.38;;;;;;;;;;4979149;28;20058;-61
2023/09/11 01:07:57;;;;;;;21.77;8.77;;;;;;;;;;4985445;28;20140;-62
2023/09/11 01:10:24;;;;;;;19.63;8.45;;;;;;;;;;4976746;28;20050;-63
2023/09/11 01:12:51;;;;;;;25.88;8.63;;;;;;;;;;4998544;28;20154;-63
2023/09/11 01:15:18;;;;;;;15.98;8.15;;;;;;;;;;4960604;28;20074;-65
2023/09/11 01:17:52;;;;;;;22.00;8.45;;;;;;;;;;4965595;28;20105;-61
2023/09/11 01:21:00;;;;;;;19.42;8.75;;;;;;;;;;4962706;28;20063;-64
2023/09/11 01:24:03;;;;;;;20.77;8.23;;;;;;;;;;4931798;29;20051;-66
2023/09/11 01:26:50;;;;;;;19.88;8.25;;;;;;;;;;4970180;28;20054;-61
2023/09/11 01:29:21;;;;;;;18.63;8.23;;;;;;;;;;4982729;28;20160;-64
2023/09/11 01:31:48;;;;;;;15.82;7.40;;;;;;;;;;4995425;28;20073;-61
2023/09/11 01:34:15;;;;;;;19.05;8.40;;;;;;;;;;4988834;28;20140;-65
2023/09/11 01:36:41;;;;;;;17.42;8.05;;;;;;;;;;4972844;28;20077;-62
2023/09/11 01:39:08;;;;;;;13.48;7.90;;;;;;;;;;4984497;28;20119;-61
2023/09/11 01:41:37;;;;;;;17.30;7.43;;;;;;;;;;4984743;28;20058;-64
2023/09/11 01:44:14;;;;;;;23.02;8.38;;;;;;;;;;4984517;28;20054;-62
2023/09/11 01:46:43;;;;;;;18.08;8.20;;;;;;;;;;4967377;28;20061;-65
2023/09/11 01:49:11;;;;;;;19.38;8.15;;;;;;;;;;4983505;28;20066;-62
2023/09/11 01:51:39;;;;;;;19.27;8.48;;;;;;;;;;4984831;28;20062;-64
2023/09/11 01:54:07;;;;;;;16.40;8.25;;;;;;;;;;4992256;28;20057;-64
2023/09/11 01:56:34;;;;;;;13.95;7.63;;;;;;;;;;4998088;28;20116;-64
2023/09/11 01:59:00;;;;;;;19.85;8.20;;;;;;;;;;5004226;28;20050;-63
2023/09/11 02:01:27;;;;;;;13.57;7.88;;;;;;;;;;5003140;28;20122;-62
2023/09/11 02:03:55;;;;;;;22.15;8.32;;;;;;;;;;4952327;28;20086;-62
2023/09/11 02:06:22;;;;;;;18.40;8.45;;;;;;;;;;4998966;28;20139;-62
2023/09/11 02:08:49;;;;;;;22.05;8.02;;;;;;;;;;5002096;28;20064;-63
2023/09/11 02:11:15;;;;;;;18.27;8.68;;;;;;;;;;5002314;28;20050;-63
2023/09/11 02:13:42;;;;;;;19.08;8.23;;;;;;;;;;4986090;28;20082;-61
2023/09/11 02:16:09;;;;;;;16.75;8.50;;;;;;;;;;4983614;28;20085;-64
2023/09/11 02:18:36;;;;;;;14.77;8.10;;;;;;;;;;4976079;28;20146;-63
2023/09/11 02:21:05;;;;;;;18.65;8.60;;;;;;;;;;4991994;28;20057;-63
2023/09/11 02:23:32;;;;;;;17.52;8.38;;;;;;;;;;5003606;28;20065;-63
2023/09/11 02:25:59;;;;;;;20.02;9.02;;;;;;;;;;4997877;28;20138;-63
2023/09/11 02:28:26;;;;;;;22.73;8.98;;;;;;;;;;4995482;28;20053;-65
2023/09/11 02:30:53;;;;;;;17.15;8.60;;;;;;;;;;5002732;28;20271;-64
2023/09/11 02:33:20;;;;;;;21.02;8.57;;;;;;;;;;5001934;28;20057;-61
2023/09/11 02:35:53;;;;;;;19.38;8.90;;;;;;;;;;4980496;28;20051;-64
2023/09/11 02:38:21;;;;;;;20.67;9.13;;;;;;;;;;4985024;28;20062;-62
2023/09/11 02:40:48;;;;;;;21.38;8.88;;;;;;;;;;5002860;28;20139;-64
2023/09/11 02:43:14;;;;;;;20.35;9.15;;;;;;;;;;5002802;28;20053;-64
2023/09/11 02:45:42;;;;;;;26.52;9.23;;;;;;;;;;4999229;28;20088;-62
2023/09/11 02:48:09;;;;;;;20.00;10.02;;;;;;;;;;5002977;28;20053;-62
2023/09/11 02:50:35;;;;;;;17.30;9.25;;;;;;;;;;4990913;28;20054;-64
2023/09/11 02:53:02;;;;;;;20.52;9.77;;;;;;;;;;4983579;28;20144;-62
2023/09/11 02:55:30;;;;;;;20.17;10.57;;;;;;;;;;4993978;28;20054;-63
2023/09/11 02:57:57;;;;;;;15.10;9.20;;;;;;;;;;4983470;28;20050;-63
2023/09/11 03:00:23;;;;;;;25.98;10.07;;;;;;;;;;4977240;28;20058;-63
2023/09/11 03:02:50;;;;;;;26.50;10.65;;;;;;;;;;4981181;28;20062;-63
2023/09/11 03:05:17;;;;;;;21.27;10.60;;;;;;;;;;4978115;28;20121;-61
2023/09/11 03:07:43;;;;;;;20.45;10.43;;;;;;;;;;4983903;28;20295;-64
2023/09/11 03:10:11;;;;;;;22.88;10.20;;;;;;;;;;4979987;28;20113;-63
2023/09/11 03:12:39;;;;;;;24.00;11.30;;;;;;;;;;4977529;28;20068;-64
2023/09/11 03:15:09;;;;;;;21.65;11.15;;;;;;;;;;4980096;28;20400;-62
2023/09/11 03:17:36;;;;;;;23.33;10.82;;;;;;;;;;4998264;28;20157;-62
2023/09/11 03:20:04;;;;;;;20.90;10.95;;;;;;;;;;4982396;28;20077;-64
2023/09/11 03:22:31;;;;;;;18.75;10.60;;;;;;;;;;4974556;28;20054;-64
2023/09/11 03:24:58;;;;;;;22.60;10.20;;;;;;;;;;4978394;28;20121;-61
2023/09/11 03:27:24;;;;;;;23.65;11.75;;;;;;;;;;4981911;28;20136;-61
2023/09/11 03:29:52;;;;;;;21.48;10.52;;;;;;;;;;4981606;28;20112;-62
2023/09/11 03:32:19;;;;;;;21.88;10.95;;;;;;;;;;4975199;28;20053;-61
2023/09/11 03:34:46;;;;;;;22.75;11.60;;;;;;;;;;4944064;28;20062;-64
2023/09/11 03:37:12;;;;;;;23.00;10.55;;;;;;;;;;4982909;28;20066;-63
2023/09/11 03:39:39;;;;;;;27.23;11.48;;;;;;;;;;4983116;28;20062;-61
2023/09/11 03:42:06;;;;;;;21.45;10.82;;;;;;;;;;4982597;28;20078;-64
2023/09/11 03:44:33;;;;;;;21.55;10.60;;;;;;;;;;4966909;28;20055;-64
2023/09/11 03:47:01;;;;;;;21.25;11.35;;;;;;;;;;4960159;28;20078;-62
2023/09/11 03:49:28;;;;;;;19.33;10.88;;;;;;;;;;4968002;28;20058;-61
2023/09/11 03:51:54;;;;;;;26.30;12.23;;;;;;;;;;4980736;28;20149;-64
2023/09/11 03:54:21;;;;;;;23.90;11.38;;;;;;;;;;4973689;28;20128;-63
2023/09/11 03:56:48;;;;;;;21.48;11.57;;;;;;;;;;4983172;28;20086;-61
2023/09/11 03:59:14;;;;;;;24.45;11.43;;;;;;;;;;4982376;28;20054;-63
2023/09/11 04:01:41;;;;;;;20.17;10.73;;;;;;;;;;4998427;28;20054;-61
2023/09/11 04:04:09;;;;;;;25.00;12.35;;;;;;;;;;4972764;28;20213;-63
2023/09/11 04:06:36;;;;;;;26.67;11.80;;;;;;;;;;4988297;28;20132;-61
2023/09/11 04:09:04;;;;;;;21.00;11.25;;;;;;;;;;4997071;28;20081;-62
2023/09/11 04:11:31;;;;;;;24.63;10.93;;;;;;;;;;4982645;28;20053;-62
2023/09/11 04:13:58;;;;;;;26.38;11.50;;;;;;;;;;4968735;28;20066;-63
2023/09/11 04:16:25;;;;;;;22.27;11.90;;;;;;;;;;4975564;28;20058;-64
2023/09/11 04:18:52;;;;;;;24.02;11.25;;;;;;;;;;4997350;28;20104;-64
2023/09/11 04:21:20;;;;;;;22.67;11.10;;;;;;;;;;4980823;28;20089;-63
2023/09/11 04:23:46;;;;;;;24.33;11.23;;;;;;;;;;4988853;28;20118;-62
2023/09/11 04:26:13;;;;;;;24.27;11.25;;;;;;;;;;4977164;28;20133;-62
2023/09/11 04:28:40;;;;;;;21.75;10.80;;;;;;;;;;4976957;28;20539;-63
2023/09/11 04:31:06;;;;;;;26.88;10.98;;;;;;;;;;4997419;28;20061;-64
2023/09/11 04:33:34;;;;;;;23.75;10.23;;;;;;;;;;4980454;28;20083;-63
2023/09/11 04:36:01;;;;;;;27.65;17.23;;;;;;;;;;4980776;28;20050;-63
2023/09/11 04:38:29;;;;;;;31.67;13.23;;;;;;;;;;4977250;28;20062;-65
2023/09/11 04:40:57;;;;;;;22.38;12.13;;;;;;;;;;4986070;28;20144;-63
2023/09/11 04:43:24;;;;;;;31.50;13.98;;;;;;;;;;4985543;28;20077;-62
2023/09/11 04:45:50;;;;;;;22.55;12.68;;;;;;;;;;4971700;28;20137;-62
2023/09/11 04:48:18;;;;;;;23.90;10.85;;;;;;;;;;4982081;28;20054;-61
2023/09/11 04:50:45;;;;;;;20.25;11.23;;;;;;;;;;4981756;28;20106;-63
2023/09/11 04:53:12;;;;;;;18.80;10.65;;;;;;;;;;5000271;28;20058;-64
2023/09/11 04:55:40;;;;;;;17.83;10.80;;;;;;;;;;4963704;28;20061;-63
2023/09/11 04:58:07;;;;;;;31.02;15.23;;;;;;;;;;4988824;28;20114;-62
2023/09/11 05:00:34;;;;;;;27.95;13.70;;;;;;;;;;4976843;28;20084;-61
2023/09/11 05:03:01;;;;;;;23.08;11.80;;;;;;;;;;4979853;28;20132;-64
2023/09/11 05:05:27;;;;;;;22.13;11.40;;;;;;;;;;4969231;28;20157;-64
2023/09/11 05:07:54;;;;;;;22.92;11.52;;;;;;;;;;4998719;28;20050;-61
2023/09/11 05:10:21;;;;;;;24.35;11.68;;;;;;;;;;4991221;28;20116;-64
2023/09/11 05:12:49;;;;;;;24.17;11.70;;;;;;;;;;4983784;28;20058;-64
2023/09/11 05:15:18;;;;;;;21.05;10.63;;;;;;;;;;4977602;28;20047;-61
2023/09/11 05:17:45;;;;;;;23.95;11.88;;;;;;;;;;4975042;28;20063;-64
2023/09/11 05:20:12;;;;;;;24.15;11.57;;;;;;;;;;4969243;28;20073;-62
2023/09/11 05:22:39;;;;;;;43.15;23.20;;;;;;;;;;4977634;28;20058;-62
2023/09/11 05:25:09;;;;;;;26.77;14.70;;;;;;;;;;4980533;28;20065;-63
2023/09/11 05:27:36;;;;;;;34.08;16.80;;;;;;;;;;4980277;28;20149;-63
2023/09/11 05:30:07;;;;;;;27.20;15.45;;;;;;;;;;4983980;28;20073;-65
2023/09/11 05:32:34;;;;;;;34.38;12.32;;;;;;;;;;4979146;28;20062;-64
2023/09/11 05:35:01;;;;;;;22.17;11.68;;;;;;;;;;4971376;28;20077;-61
2023/09/11 05:37:27;;;;;;;26.23;11.52;;;;;;;;;;4980320;28;20062;-63
2023/09/11 05:39:54;;;;;;;28.08;11.27;;;;;;;;;;4978921;28;20201;-62
2023/09/11 05:42:21;;;;;;;23.35;11.73;;;;;;;;;;4972139;28;20119;-64
2023/09/11 05:44:48;;;;;;;26.40;12.57;;;;;;;;;;4955789;28;20061;-63
2023/09/11 05:47:17;;;;;;;20.63;11.40;;;;;;;;;;4980148;28;20062;-61
2023/09/11 05:49:43;;;;;;;29.50;15.27;;;;;;;;;;4972139;28;20132;-65
2023/09/11 05:52:10;;;;;;;27.80;14.23;;;;;;;;;;4959763;28;20066;-64
2023/09/11 05:54:37;;;;;;;25.60;11.45;;;;;;;;;;4950927;28;20070;-62
2023/09/11 05:57:05;;;;;;;26.42;11.55;;;;;;;;;;4959599;28;20051;-64
2023/09/11 05:59:32;;;;;;;28.60;12.20;;;;;;;;;;4960208;28;20055;-65
2023/09/11 06:01:59;;;;;;;22.70;11.00;;;;;;;;;;4974961;28;20241;-62
2023/09/11 06:04:27;;;;;;;24.38;11.93;;;;;;;;;;4962131;28;20062;-62
2023/09/11 06:06:54;;;;;;;26.58;11.85;;;;;;;;;;4979389;28;20058;-64
2023/09/11 06:09:21;;;;;;;26.40;12.57;;;;;;;;;;4980289;28;20065;-63
2023/09/11 06:11:47;;;;;;;22.27;11.65;;;;;;;;;;4980555;28;20105;-61
2023/09/11 06:14:17;;;;;;;24.50;12.68;;;;;;;;;;4972530;28;20054;-64
2023/09/11 06:16:44;;;;;;;25.52;11.55;;;;;;;;;;4979204;28;20069;-65
2023/09/11 06:19:11;;;;;;;26.02;11.85;;;;;;;;;;4990316;28;20085;-64
2023/09/11 06:21:39;;;;;;;30.40;12.38;;;;;;;;;;4981067;28;20069;-63
2023/09/11 06:24:07;;;;;;;27.90;12.10;;;;;;;;;;4990548;28;20050;-61
2023/09/11 06:26:34;;;;;;;;;;;;;;;;;;4977881;28;20113;-64
2023/09/11 06:29:00;;;;;;;20.98;11.20;;;;;;;;;;4995544;28;20069;-64
2023/09/11 06:31:27;;;;;;;28.75;12.32;;;;;;;;;;4980334;28;20066;-63
2023/09/11 06:33:54;;;;;;;24.05;12.50;;;;;;;;;;4940677;28;20125;-63
2023/09/11 06:36:21;;;;;;;24.05;12.98;;;;;;;;;;4935708;28;20150;-64
2023/09/11 06:38:49;;;;;;;29.83;12.18;;;;;;;;;;4960182;28;20067;-63
2023/09/11 06:41:15;;;;;;;23.90;11.98;;;;;;;;;;4961568;28;20054;-62
2023/09/11 06:43:46;;;;;;;31.73;17.75;;;;;;;;;;4942871;28;20062;-60
2023/09/11 06:46:12;;;;;;;32.33;14.55;;;;;;;;;;4936860;28;20054;-61
2023/09/11 06:48:39;;;;;;;30.65;14.77;;;;;;;;;;4942687;28;20078;-62
2023/09/11 06:51:06;;;;;;;25.65;12.35;;;;;;;;;;4959107;28;20062;-62
2023/09/11 06:53:32;;;;;;;28.80;13.75;;;;;;;;;;4961669;28;20054;-64
2023/09/11 06:56:00;;;;;;;26.90;12.73;;;;;;;;;;4947770;28;20050;-62
2023/09/11 06:58:27;;;;;;;24.75;12.10;;;;;;;;;;4934836;28;20250;-62
2023/09/11 07:00:54;;;;;;;33.60;12.95;;;;;;;;;;4947748;28;20056;-61
2023/09/11 07:03:21;;;;;;;25.55;14.02;;;;;;;;;;4958818;28;20177;-62
2023/09/11 07:05:51;;;;;;;28.50;13.68;;;;;;;;;;4955679;28;20058;-63
2023/09/11 07:08:17;;;;;;;30.02;13.45;;;;;;;;;;4940046;28;20055;-62
2023/09/11 07:10:51;;;;;;;27.90;12.98;;;;;;;;;;4941271;28;20055;-63
2023/09/11 07:13:20;;;;;;;28.30;12.27;;;;;;;;;;4977876;28;20112;-62
2023/09/11 07:15:57;;;;;;;19.98;10.95;;;;;;;;;;4964771;28;20066;-61
2023/09/11 07:18:23;;;;;;;19.17;11.02;;;;;;;;;;4956161;28;20058;-63
2023/09/11 07:20:51;;;;;;;19.45;10.13;;;;;;;;;;4977883;28;20062;-63
2023/09/11 07:23:18;;;;;;;20.75;10.98;;;;;;;;;;4961817;28;20210;-65
2023/09/11 07:25:44;;;;;;;22.98;9.88;;;;;;;;;;4975040;28;20137;-63
2023/09/11 07:28:14;;;;;;;21.50;9.18;;;;;;;;;;4976729;28;20054;-63
2023/09/11 07:30:43;;;;;;;19.17;9.13;;;;;;;;;;4972697;28;20062;-63
2023/09/11 07:33:10;;;;;;;26.65;9.13;;;;;;;;;;4998080;28;20065;-62
2023/09/11 07:35:37;;;;;;;21.95;9.27;;;;;;;;;;4973102;28;20097;-62
2023/09/11 07:38:05;;;;;;;20.27;8.10;;;;;;;;;;4993731;28;20205;-62
2023/09/11 07:40:32;;;;;;;19.95;8.63;;;;;;;;;;4987311;28;20054;-62
2023/09/11 07:42:59;;;;;;;19.05;8.60;;;;;;;;;;4979641;28;20065;-60
2023/09/11 07:45:27;;;;;;;19.73;8.07;;;;;;;;;;4974567;28;20054;-63
2023/09/11 07:47:55;;;;;;;22.48;9.05;;;;;;;;;;4978672;28;20169;-62
2023/09/11 07:50:22;;;;;;;24.40;8.55;;;;;;;;;;4971322;28;20090;-64
2023/09/11 07:52:50;;;;;;;18.60;8.65;;;;;;;;;;4979003;28;20194;-65
2023/09/11 07:55:17;;;;;;;19.85;8.60;;;;;;;;;;4973471;28;20197;-62
2023/09/11 07:57:43;;;;;;;16.77;8.60;;;;;;;;;;4978316;28;20051;-63
2023/09/11 08:00:14;;;;;;;19.38;8.68;;;;;;;;;;4975039;28;20054;-63
2023/09/11 08:02:41;;;;;;;17.13;8.85;;;;;;;;;;4976888;28;20061;-62
2023/09/11 08:05:10;;;;;;;19.15;8.98;;;;;;;;;;4959041;28;20086;-65
2023/09/11 08:07:37;;;;;;;19.27;8.50;;;;;;;;;;4977784;28;20109;-64
2023/09/11 08:10:04;;;;;;;15.18;8.02;;;;;;;;;;4979001;28;20066;-65
2023/09/11 08:12:34;;;;;;;19.17;9.10;;;;;;;;;;4984949;28;20049;-64
2023/09/11 08:15:01;;;;;;;17.38;9.38;;;;;;;;;;5012576;28;20155;-62
2023/09/11 08:17:29;;;;;;;23.55;9.20;;;;;;;;;;5001033;28;20049;-64
2023/09/11 08:19:55;;;;;;;19.52;8.88;;;;;;;;;;5001150;28;20088;-62
2023/09/11 08:22:23;;;;;;;23.20;9.43;;;;;;;;;;5012810;28;20137;-64
2023/09/11 08:24:50;;;;;;;18.77;8.65;;;;;;;;;;4989522;28;20053;-63
2023/09/11 08:27:17;;;;;;;19.95;8.82;;;;;;;;;;4981734;28;20054;-64
2023/09/11 08:29:44;;;;;;;24.38;9.05;;;;;;;;;;4980947;28;20120;-66
2023/09/11 08:32:10;;;;;;;18.08;9.07;;;;;;;;;;4995363;28;20082;-63
2023/09/11 08:34:37;;;;;;;22.90;9.05;;;;;;;;;;4992471;28;21144;-64
2023/09/11 08:37:04;;;;;;;23.45;9.60;;;;;;;;;;4980306;28;20076;-64
2023/09/11 08:39:32;;;;;;;20.38;9.80;;;;;;;;;;4980568;28;20038;-61
2023/09/11 08:42:00;;;;;;;23.55;10.20;;;;;;;;;;4986420;28;20081;-63
2023/09/11 08:44:27;;;;;;;21.13;9.93;;;;;;;;;;4963786;28;20097;-62
2023/09/11 08:46:57;;;;;;;20.60;9.73;;;;;;;;;;4984530;28;20066;-63
2023/09/11 08:49:28;;;;;;;26.65;10.18;;;;;;;;;;4982126;28;20050;-63
2023/09/11 08:51:55;;;;;;;18.92;9.55;;;;;;;;;;4981382;28;20050;-65
2023/09/11 08:54:27;;;;;;;19.20;9.43;;;;;;;;;;4984829;28;20054;-62
2023/09/11 08:56:57;;;;;;;21.35;9.48;;;;;;;;;;4980280;28;20065;-64
2023/09/11 08:59:27;;;;;;;29.30;8.50;;;;;;;;;;4979892;28;20062;-63
2023/09/11 09:01:55;;;;;;;18.42;8.88;;;;;;;;;;4979755;28;20109;-63
2023/09/11 09:04:23;;;;;;;24.10;8.73;;;;;;;;;;4975846;28;20046;-66
2023/09/11 09:06:52;;;;;;;16.40;8.17;;;;;;;;;;4980920;28;20058;-63
2023/09/11 09:09:20;;;;;;;18.42;7.90;;;;;;;;;;4996713;28;20370;-66
2023/09/11 09:11:48;;;;;;;22.60;8.43;;;;;;;;;;4979867;28;20054;-63
2023/09/11 09:14:20;;;;;;;17.27;7.90;;;;;;;;;;4981440;28;20540;-62
2023/09/11 09:16:48;;;;;;;20.10;8.23;;;;;;;;;;4980636;28;20066;-65
2023/09/11 09:19:15;;;;;;;23.53;9.17;;;;;;;;;;4981051;28;20061;-62
2023/09/11 09:22:12;;;;;;;18.80;7.88;;;;;;;;;;4994189;28;20135;-62
2023/09/11 09:24:50;;;;;;;22.27;7.85;;;;;;;;;;4958534;28;20062;-65
2023/09/11 09:27:17;;;;;;;23.38;8.25;;;;;;;;;;4986138;28;20057;-64
2023/09/11 09:29:47;;;;;;;17.45;7.88;;;;;;;;;;4998341;28;20125;-61
2023/09/11 09:32:14;;;;;;;15.48;7.85;;;;;;;;;;4997282;28;20058;-61
2023/09/11 09:34:48;;;;;;;16.45;8.15;;;;;;;;;;4952437;28;20128;-62
2023/09/11 09:37:19;;;;;;;20.20;7.80;;;;;;;;;;4964093;28;20085;-63
2023/09/11 09:39:50;;;;;;;12.57;7.55;;;;;;;;;;4963158;28;20149;-64
2023/09/11 09:42:17;;;;;;;14.23;6.40;;;;;;;;;;4956481;28;20059;-63
2023/09/11 09:44:52;;;;;;;15.80;6.65;;;;;;;;;;4958570;28;20073;-64
2023/09/11 09:47:20;;;;;;;14.50;7.18;;;;;;;;;;4979873;28;20066;-61
2023/09/11 09:49:49;;;;;;;14.75;7.32;;;;;;;;;;4978907;28;20078;-63
2023/09/11 09:52:18;;;;;;;14.13;6.55;;;;;;;;;;4980416;28;20160;-65
2023/09/11 09:54:46;;;;;;;18.30;6.47;;;;;;;;;;4971233;28;20081;-64
2023/09/11 09:57:14;;;;;;;15.00;6.20;;;;;;;;;;4979381;28;20177;-64
2023/09/11 09:59:41;;;;;;;12.25;5.50;;;;;;;;;;4983604;28;20137;-64
2023/09/11 10:02:12;;;;;;;14.10;6.35;;;;;;;;;;4979149;28;20166;-66
2023/09/11 10:04:39;;;;;;;15.10;6.65;;;;;;;;;;4956217;28;20082;-62
2023/09/11 10:07:07;;;;;;;17.42;6.60;;;;;;;;;;4964999;28;20061;-64
2023/09/11 10:09:35;;;;;;;12.93;5.30;;;;;;;;;;4979702;28;20169;-63
2023/09/11 10:12:04;;;;;;;15.10;5.60;;;;;;;;;;4977735;28;20113;-61
2023/09/11 10:14:31;;;;;;;10.30;5.25;;;;;;;;;;4956188;28;20207;-61
2023/09/11 10:16:59;;;;;;;16.90;5.77;;;;;;;;;;4942860;28;20063;-62
2023/09/11 10:19:29;;;;;;;13.20;5.13;;;;;;;;;;4967348;28;20054;-63
2023/09/11 10:21:56;;;;;;;20.23;5.47;;;;;;;;;;4960960;28;20050;-64
2023/09/11 10:24:23;;;;;;;12.85;5.53;;;;;;;;;;4979253;28;20141;-64
2023/09/11 10:26:56;;;;;;;14.23;5.32;;;;;;;;;;4962681;28;20062;-66
2023/09/11 10:29:32;;;;;;;11.88;5.22;;;;;;;;;;4977672;28;20096;-63
2023/09/11 10:32:05;;;;;;;14.63;4.80;;;;;;;;;;4962183;28;20054;-62
2023/09/11 10:34:33;;;;;;;18.92;5.18;;;;;;;;;;4951254;28;20141;-58
2023/09/11 10:37:00;;;;;;;;;;;;;;;;;;4979380;28;20093;-63
2023/09/11 10:39:27;;;;;;;12.63;4.78;;;;;;;;;;5009477;28;19952;-63
2023/09/11 10:41:53;;;;;;;10.02;4.00;;;;;;;;;;4978450;28;20054;-62
2023/09/11 10:44:20;;;;;;;13.40;5.22;;;;;;;;;;4965294;28;20081;-63
2023/09/11 10:46:52;;;;;;;11.00;5.18;;;;;;;;;;4993771;28;20054;-65
2023/09/11 10:49:20;;;;;;;10.88;4.78;;;;;;;;;;4979217;28;20118;-65
2023/09/11 10:51:49;;;;;;;16.08;4.72;;;;;;;;;;4979674;28;20058;-64
2023/09/11 10:54:17;;;;;;;14.57;4.70;;;;;;;;;;4945443;28;20073;-65
2023/09/11 10:56:49;;;;;;;9.00;4.03;;;;;;;;;;4993935;28;20050;-64
2023/09/11 10:59:16;;;;;;;9.63;3.90;;;;;;;;;;4979161;28;20058;-63
2023/09/11 11:01:45;;;;;;;15.43;5.18;;;;;;;;;;4979327;28;20060;-63
2023/09/11 11:04:16;;;;;;;9.43;4.28;;;;;;;;;;4970385;28;20090;-65
2023/09/11 11:06:44;;;;;;;15.68;4.45;;;;;;;;;;4991946;28;20062;-62
2023/09/11 11:09:25;;;;;;;;;;;;;;;;;;4977289;28;20054;-64
2023/09/11 11:11:54;;;;;;;12.02;3.90;;;;;;;;;;4979513;28;19926;-66
2023/09/11 11:14:23;;;;;;;12.55;4.60;;;;;;;;;;4984099;28;20053;-62
2023/09/11 11:16:59;;;;;;;11.60;4.68;;;;;;;;;;4978086;28;20054;-63
2023/09/11 11:19:31;;;;;;;14.27;5.28;;;;;;;;;;4977791;28;20050;-64
2023/09/11 11:21:58;;;;;;;10.50;4.50;;;;;;;;;;4978137;28;20065;-61
2023/09/11 11:24:26;;;;;;;10.45;4.53;;;;;;;;;;4953759;28;20130;-63
2023/09/11 11:26:57;;;;;;;10.68;4.68;;;;;;;;;;4991971;28;20066;-64
2023/09/11 11:29:24;;;;;;;12.82;4.53;;;;;;;;;;4978866;28;20070;-62
2023/09/11 11:31:57;;;;;;;10.82;4.75;;;;;;;;;;4978939;28;20057;-62
2023/09/11 11:34:27;;;;;;;11.48;4.50;;;;;;;;;;4946601;28;20136;-61
2023/09/11 11:36:57;;;;;;;11.52;4.78;;;;;;;;;;4961524;28;20060;-61
2023/09/11 11:39:26;;;;;;;9.48;4.80;;;;;;;;;;4979878;28;20069;-62
2023/09/11 11:41:54;;;;;;;10.85;4.85;;;;;;;;;;4965179;28;20070;-64
2023/09/11 11:44:22;;;;;;;8.02;3.92;;;;;;;;;;4969269;28;20373;-62
2023/09/11 11:46:56;;;;;;;11.77;5.25;;;;;;;;;;4966362;28;20055;-64
2023/09/11 11:49:23;;;;;;;15.45;5.55;;;;;;;;;;4965148;28;20057;-63
2023/09/11 11:51:50;;;;;;;9.75;5.07;;;;;;;;;;4966354;28;20055;-64
2023/09/11 11:54:24;;;;;;;12.35;5.32;;;;;;;;;;4952392;28;20054;-63
2023/09/11 11:56:56;;;;;;;18.08;5.95;;;;;;;;;;4968902;28;20050;-65
2023/09/11 11:59:24;;;;;;;9.75;4.50;;;;;;;;;;4982800;28;20085;-63
2023/09/11 12:01:50;;;;;;;13.27;4.82;;;;;;;;;;4984389;28;20066;-63
2023/09/11 12:04:19;;;;;;;11.18;4.97;;;;;;;;;;4954664;28;20142;-64
2023/09/11 12:06:47;;;;;;;11.38;4.60;;;;;;;;;;4967676;28;20141;-65
2023/09/11 12:09:19;;;;;;;11.15;4.32;;;;;;;;;;4966439;28;20082;-64
2023/09/11 12:11:46;;;;;;;9.10;4.28;;;;;;;;;;4984016;28;20168;-66
2023/09/11 12:14:15;;;;;;;10.02;4.82;;;;;;;;;;4971208;28;20157;-62
2023/09/11 12:16:42;;;;;;;15.43;5.90;;;;;;;;;;4983126;28;20129;-63
2023/09/11 12:19:09;;;;;;;13.15;4.70;;;;;;;;;;4980344;28;20062;-62
2023/09/11 12:21:36;;;;;;;8.70;4.00;;;;;;;;;;4982237;28;20062;-61
2023/09/11 12:24:03;;;;;;;13.80;5.20;;;;;;;;;;4964817;28;20058;-63
2023/09/11 12:26:31;;;;;;;15.35;6.68;;;;;;;;;;4972774;28;20097;-63
2023/09/11 12:28:58;;;;;;;11.20;4.60;;;;;;;;;;4998072;28;20089;-63
2023/09/11 12:31:27;;;;;;;13.85;4.32;;;;;;;;;;4967272;28;20058;-63
2023/09/11 12:33:55;;;;;;;18.92;4.88;;;;;;;;;;4996926;28;20086;-65
2023/09/11 12:36:22;;;;;;;;;;;;;;;;;;4971158;28;20204;-63
2023/09/11 12:38:49;;;;;;;13.70;5.03;;;;;;;;;;4980792;28;19925;-62
2023/09/11 12:41:16;;;;;;;14.98;5.22;;;;;;;;;;4981785;28;20091;-63
2023/09/11 12:43:43;;;;;;;11.68;4.95;;;;;;;;;;4980669;28;20102;-61
2023/09/11 12:46:11;;;;;;;14.43;4.97;;;;;;;;;;4970107;28;20050;-64
2023/09/11 12:48:42;;;;;;;8.60;4.35;;;;;;;;;;4978091;28;20130;-63
2023/09/11 12:51:10;;;;;;;12.45;5.43;;;;;;;;;;4977113;28;20059;-61
2023/09/11 12:53:37;;;;;;;15.57;5.78;;;;;;;;;;4977575;28;20058;-62
2023/09/11 12:56:09;;;;;;;12.30;5.68;;;;;;;;;;4974161;28;20078;-62
2023/09/11 12:58:37;;;;;;;11.77;6.18;;;;;;;;;;4975800;28;20062;-62
2023/09/11 13:01:03;;;;;;;;;;;;;;;;;;4980576;28;20153;-62
2023/09/11 13:03:31;;;;;;;12.85;5.18;;;;;;;;;;4979453;28;19937;-63
2023/09/11 13:05:59;;;;;;;16.88;5.65;;;;;;;;;;4978745;28;20058;-63
2023/09/11 13:08:28;;;;;;;14.75;6.22;;;;;;;;;;4989850;28;20093;-64
2023/09/11 13:10:54;;;;;;;16.25;5.88;;;;;;;;;;4996490;28;20161;-64
2023/09/11 13:13:21;;;;;;;21.35;4.72;;;;;;;;;;4997502;28;20058;-64
2023/09/11 13:15:48;;;;;;;7.60;4.15;;;;;;;;;;4988882;28;20050;-63
2023/09/11 13:18:14;;;;;;;15.10;4.35;;;;;;;;;;4977729;28;20062;-62
2023/09/11 13:20:41;;;;;;;12.63;4.15;;;;;;;;;;4981881;28;20058;-63
2023/09/11 13:23:09;;;;;;;9.90;4.40;;;;;;;;;;4982018;28;20062;-61
2023/09/11 13:25:36;;;;;;;9.50;4.22;;;;;;;;;;4977478;28;20133;-61
2023/09/11 13:28:04;;;;;;;12.68;3.80;;;;;;;;;;4990508;28;20070;-62
2023/09/11 13:30:32;;;;;;;8.20;3.28;;;;;;;;;;5003275;28;20077;-62
2023/09/11 13:32:59;;;;;;;10.45;4.05;;;;;;;;;;4983562;28;20138;-61
2023/09/11 13:35:26;;;;;;;12.70;4.18;;;;;;;;;;4977610;28;20061;-61
2023/09/11 13:37:53;;;;;;;11.18;4.93;;;;;;;;;;4983215;28;20069;-63
2023/09/11 13:40:22;;;;;;;10.52;5.35;;;;;;;;;;4991306;28;20058;-62
2023/09/11 13:42:49;;;;;;;10.15;3.30;;;;;;;;;;4981895;28;20070;-61
2023/09/11 13:45:17;;;;;;;9.55;3.28;;;;;;;;;;4979448;28;20130;-61
2023/09/11 13:47:43;;;;;;;6.47;3.20;;;;;;;;;;4979501;28;20089;-63
2023/09/11 13:50:10;;;;;;;15.70;3.65;;;;;;;;;;4980281;28;20058;-64
2023/09/11 13:52:37;;;;;;;7.37;4.10;;;;;;;;;;4974838;28;20058;-64
2023/09/11 13:55:05;;;;;;;11.52;4.88;;;;;;;;;;4978092;28;20108;-62
2023/09/11 13:57:33;;;;;;;4.85;2.67;;;;;;;;;;4997527;28;20058;-63
2023/09/11 14:00:00;;;;;;;7.53;2.83;;;;;;;;;;4982014;28;20046;-63
2023/09/11 14:02:26;;;;;;;7.80;3.15;;;;;;;;;;4975840;28;20062;-63
2023/09/11 14:04:53;;;;;;;8.65;3.10;;;;;;;;;;4973037;28;20062;-63
2023/09/11 14:07:21;;;;;;;6.32;2.90;;;;;;;;;;4979830;28;20054;-63
2023/09/11 14:09:47;;;;;;;9.15;2.85;;;;;;;;;;4995825;28;20050;-62
2023/09/11 14:12:14;;;;;;;7.30;3.00;;;;;;;;;;4975572;28;20152;-63
2023/09/11 14:14:42;;;;;;;8.13;3.50;;;;;;;;;;4970205;28;20073;-63
2023/09/11 14:17:09;;;;;;;5.38;2.47;;;;;;;;;;4990002;28;20063;-62
2023/09/11 14:19:36;;;;;;;10.32;3.10;;;;;;;;;;4983299;28;20057;-62
2023/09/11 14:22:03;;;;;;;6.20;2.78;;;;;;;;;;4978663;28;20138;-62
2023/09/11 14:24:29;;;;;;;8.90;3.30;;;;;;;;;;4961020;28;20066;-63
2023/09/11 14:26:56;;;;;;;4.57;2.65;;;;;;;;;;4981222;28;20082;-63
2023/09/11 14:29:25;;;;;;;10.73;2.88;;;;;;;;;;5013546;28;20126;-63
2023/09/11 14:31:56;;;;;;;7.20;3.08;;;;;;;;;;4980587;28;20065;-63
2023/09/11 14:34:23;;;;;;;12.77;2.97;;;;;;;;;;4916461;28;20058;-61